Time;durP1;ratioP1;P1;durP2;ratioP2;P2;SDS_P1;SDS_P2;PMS_P1;PMS_P2;Temp;Humidity;BMP_temperature;BMP_pressure;BME280_temperature;BME280_humidity;BME280_pressure;Samples;Min_cycle;Max_cycle;Signal;HPM_P1;HPM_P2
2023/01/08 00:01:17;;;;;;;1.17;1.00;;;;;;;12.39;45.58;95769.94;5031443;28;20203;-80
2023/01/08 00:03:45;;;;;;;0.87;0.87;;;;;;;12.46;45.26;95765.16;5024590;28;20295;-80
2023/01/08 00:06:13;;;;;;;0.90;0.90;;;;;;;12.47;44.78;95751.34;5033730;28;20198;-81
2023/01/08 00:08:40;;;;;;;0.90;0.90;;;;;;;12.52;44.65;95754.09;5034789;28;20220;-80
2023/01/08 00:11:08;;;;;;;0.80;0.80;;;;;;;12.56;44.62;95776.09;5037410;28;20219;-80
2023/01/08 00:13:35;;;;;;;1.43;0.97;;;;;;;12.68;44.21;95776.72;5032707;28;20218;-80
2023/01/08 00:16:07;;;;;;;0.90;0.90;;;;;;;12.57;44.86;95766.88;5042092;28;20208;-80
2023/01/08 00:18:35;;;;;;;0.90;0.90;;;;;;;12.59;44.60;95772.06;5030830;28;20229;-80
2023/01/08 00:21:03;;;;;;;1.10;1.00;;;;;;;12.65;43.97;95774.53;5029069;28;20210;-80
2023/01/08 00:23:31;;;;;;;1.97;0.90;;;;;;;12.74;43.17;95774.91;5036661;28;20202;-80
2023/01/08 00:26:00;;;;;;;2.10;1.10;;;;;;;12.86;43.20;95770.91;5036410;28;20210;-80
2023/01/08 00:28:27;;;;;;;0.93;0.93;;;;;;;12.72;44.21;95791.41;5023567;28;20207;-80
2023/01/08 00:30:54;;;;;;;0.90;0.90;;;;;;;12.65;44.27;95779.97;5035576;28;20271;-80
2023/01/08 00:33:21;;;;;;;0.80;0.80;;;;;;;12.74;43.44;95804.69;5039890;28;20219;-81
2023/01/08 00:35:50;;;;;;;1.03;0.93;;;;;;;12.81;43.23;95789.03;5038217;28;20206;-80
2023/01/08 00:38:17;;;;;;;2.20;0.97;;;;;;;12.74;43.90;95783.84;5051174;28;20291;-80
2023/01/08 00:40:44;;;;;;;0.83;0.83;;;;;;;12.74;44.17;95748.63;5035645;28;20213;-80
2023/01/08 00:43:11;;;;;;;0.93;0.90;;;;;;;12.68;44.16;95774.00;5035592;28;20246;-80
2023/01/08 00:45:38;;;;;;;0.70;0.70;;;;;;;12.65;44.56;95781.84;5039571;28;20198;-80
2023/01/08 00:48:05;;;;;;;1.00;0.87;;;;;;;12.68;44.24;95768.59;5036588;28;20225;-80
2023/01/08 00:50:32;;;;;;;1.00;0.90;;;;;;;12.77;43.62;95791.44;5040463;28;20194;-80
2023/01/08 00:53:02;;;;;;;2.03;1.00;;;;;;;12.65;44.43;95782.66;5043959;28;20204;-80
2023/01/08 00:55:29;;;;;;;0.80;0.80;;;;;;;12.56;44.99;95797.75;5041809;28;20975;-80
2023/01/08 00:57:57;;;;;;;0.80;0.80;;;;;;;12.58;44.87;95792.06;5039296;28;20237;-80
2023/01/08 01:00:24;;;;;;;1.10;1.00;;;;;;;12.59;44.82;95780.19;5036323;28;20332;-79
2023/01/08 01:02:51;;;;;;;1.00;0.90;;;;;;;12.70;44.10;95758.31;5035617;28;20207;-80
2023/01/08 01:05:18;;;;;;;0.80;0.80;;;;;;;12.79;43.99;95775.75;5031453;28;20198;-81
2023/01/08 01:07:46;;;;;;;1.10;1.00;;;;;;;12.65;44.98;95741.22;5029337;28;20214;-80
2023/01/08 01:10:16;;;;;;;1.03;1.00;;;;;;;12.60;45.10;95779.91;5032443;28;20222;-80
2023/01/08 01:12:43;;;;;;;0.90;0.90;;;;;;;12.63;45.36;95757.72;5035529;28;20240;-80
2023/01/08 01:15:13;;;;;;;1.13;0.90;;;;;;;12.51;45.76;95741.63;5041558;28;20219;-80
2023/01/08 01:17:42;;;;;;;1.27;1.10;;;;;;;12.53;45.68;95738.66;5043695;28;20348;-80
2023/01/08 01:20:11;;;;;;;0.80;0.80;;;;;;;12.49;46.60;95732.16;5037445;28;20198;-80
2023/01/08 01:22:39;;;;;;;1.00;0.90;;;;;;;12.56;45.87;95742.75;5042392;28;20199;-80
2023/01/08 01:25:09;;;;;;;1.10;1.00;;;;;;;12.51;46.20;95738.09;5032308;28;20238;-79
2023/01/08 01:27:38;;;;;;;0.90;0.90;;;;;;;12.57;45.38;95737.09;5029364;28;20239;-79
2023/01/08 01:30:09;;;;;;;0.80;0.80;;;;;;;12.57;45.84;95733.56;5046622;28;20198;-80
2023/01/08 01:32:37;;;;;;;1.57;1.00;;;;;;;12.51;46.22;95733.50;5043050;28;20229;-80
2023/01/08 01:35:04;;;;;;;0.70;0.70;;;;;;;12.62;45.31;95704.63;5043508;28;20256;-80
2023/01/08 01:37:34;;;;;;;1.00;0.80;;;;;;;12.70;45.05;95727.72;5041719;28;21351;-79
2023/01/08 01:40:00;;;;;;;0.80;0.70;;;;;;;12.71;44.57;95681.41;5039501;28;20213;-81
2023/01/08 01:42:40;;;;;;;0.93;0.87;;;;;;;12.79;44.33;95726.16;5041850;28;20315;-79
2023/01/08 01:45:17;;;;;;;1.03;0.90;;;;;;;12.72;45.08;95745.34;5040154;28;20221;-80
2023/01/08 01:47:47;;;;;;;0.87;0.87;;;;;;;12.71;45.42;95757.25;5045883;28;20216;-80
2023/01/08 01:50:19;;;;;;;1.07;0.83;;;;;;;12.78;44.35;95746.19;5048746;28;20220;-80
2023/01/08 01:52:52;;;;;;;0.90;0.90;;;;;;;12.71;45.20;95767.28;5036968;28;20211;-80
2023/01/08 01:55:19;;;;;;;0.90;0.90;;;;;;;12.73;44.85;95740.75;5041179;28;20261;-81
2023/01/08 01:57:52;;;;;;;0.80;0.80;;;;;;;12.69;45.07;95781.06;5047453;28;20207;-80
2023/01/08 02:00:22;;;;;;;1.87;1.00;;;;;;;12.74;44.56;95767.59;5045004;28;20199;-80
2023/01/08 02:02:50;;;;;;;1.10;1.00;;;;;;;12.76;44.45;95787.09;5043427;28;20226;-80
2023/01/08 02:05:17;;;;;;;0.80;0.80;;;;;;;12.72;45.36;95764.31;5037550;28;20234;-80
2023/01/08 02:07:50;;;;;;;0.97;0.90;;;;;;;12.61;45.77;95797.78;5031404;28;20292;-80
2023/01/08 02:10:25;;;;;;;0.93;0.80;;;;;;;12.64;45.18;95788.34;5030664;28;20228;-82
2023/01/08 02:12:57;;;;;;;0.80;0.80;;;;;;;12.70;44.90;95790.00;5029401;28;20213;-80
2023/01/08 02:15:33;;;;;;;0.93;0.90;;;;;;;12.84;43.93;95766.84;5032519;28;20255;-81
2023/01/08 02:18:08;;;;;;;0.80;0.80;;;;;;;12.85;43.77;95788.25;5044208;28;20203;-80
2023/01/08 02:20:39;;;;;;;0.70;0.70;;;;;;;12.74;44.87;95797.38;5031165;28;20255;-80
2023/01/08 02:23:42;;;;;;;0.80;0.80;;;;;;;12.75;44.89;95793.59;5032112;28;20215;-81
2023/01/08 02:26:16;;;;;;;0.80;0.80;;;;;;;12.70;44.57;95793.53;5036290;28;20312;-80
2023/01/08 02:28:48;;;;;;;0.97;0.80;;;;;;;12.73;45.26;95779.50;5036376;28;20206;-80
2023/01/08 02:31:17;;;;;;;1.00;0.90;;;;;;;12.76;44.94;95762.69;5038869;28;20508;-80
2023/01/08 02:33:44;;;;;;;0.70;0.70;;;;;;;12.69;45.46;95796.50;5042690;28;20210;-79
2023/01/08 02:36:29;;;;;;;0.70;0.70;;;;;;;12.73;44.63;95770.53;5032553;28;20214;-80
2023/01/08 02:39:10;;;;;;;0.80;0.80;;;;;;;12.72;44.90;95774.31;5030693;28;20215;-80
2023/01/08 02:41:54;;;;;;;1.40;0.80;;;;;;;12.54;45.42;95751.13;5029064;28;20212;-80
2023/01/08 02:44:29;;;;;;;0.97;0.80;;;;;;;12.51;45.46;95751.63;5034471;28;20290;-81
2023/01/08 02:46:58;;;;;;;0.90;0.80;;;;;;;12.56;45.33;95729.22;5032758;28;20225;-81
2023/01/08 02:49:32;;;;;;;0.83;0.83;;;;;;;12.49;45.63;95742.97;5033086;28;20481;-80
2023/01/08 02:52:02;;;;;;;0.70;0.70;;;;;;;12.49;45.19;95729.44;5032895;28;20202;-80
2023/01/08 02:54:33;;;;;;;1.03;0.80;;;;;;;12.47;46.19;95742.41;5034448;28;20215;-81
2023/01/08 02:57:06;;;;;;;0.70;0.70;;;;;;;12.50;44.96;95717.53;5032758;28;20214;-81
2023/01/08 02:59:35;;;;;;;0.77;0.77;;;;;;;12.53;45.21;95722.41;5032305;28;20284;-80
2023/01/08 03:02:04;;;;;;;1.20;0.70;;;;;;;12.66;44.42;95734.72;5030337;28;20201;-81
2023/01/08 03:04:36;;;;;;;1.00;0.80;;;;;;;12.61;44.95;95721.94;5030773;28;20292;-80
2023/01/08 03:07:04;;;;;;;1.73;0.63;;;;;;;12.56;45.58;95699.44;5031695;28;20213;-80
2023/01/08 03:09:31;;;;;;;0.83;0.77;;;;;;;12.63;44.72;95687.31;5034732;28;20229;-80
2023/01/08 03:12:04;;;;;;;1.07;1.00;;;;;;;12.65;44.84;95677.03;5032591;28;20223;-81
2023/01/08 03:14:37;;;;;;;0.70;0.70;;;;;;;12.66;44.88;95667.84;5034443;28;20218;-80
2023/01/08 03:17:09;;;;;;;0.70;0.70;;;;;;;12.67;44.49;95636.16;5035039;28;20213;-80
2023/01/08 03:19:40;;;;;;;0.70;0.70;;;;;;;12.66;45.03;95654.31;5034789;28;20214;-80
2023/01/08 03:22:10;;;;;;;0.70;0.70;;;;;;;12.74;44.48;95650.28;5033176;28;20221;-80
2023/01/08 03:24:39;;;;;;;0.70;0.70;;;;;;;12.63;45.12;95638.56;5032321;28;20234;-80
2023/01/08 03:27:13;;;;;;;1.17;0.77;;;;;;;12.46;46.04;95625.16;5032621;28;20249;-80
2023/01/08 03:29:41;;;;;;;0.80;0.70;;;;;;;12.46;45.57;95636.00;5032425;28;20205;-80
2023/01/08 03:32:11;;;;;;;0.80;0.80;;;;;;;12.56;44.69;95600.06;5029740;28;20272;-80
2023/01/08 03:34:41;;;;;;;1.30;0.70;;;;;;;12.66;44.53;95635.34;5032155;28;20240;-80
2023/01/08 03:37:10;;;;;;;0.70;0.70;;;;;;;12.56;45.02;95602.75;5032642;28;20206;-81
2023/01/08 03:39:42;;;;;;;0.60;0.60;;;;;;;12.71;43.81;95592.03;5038284;28;20293;-81
2023/01/08 03:42:14;;;;;;;0.60;0.60;;;;;;;12.73;43.92;95589.06;5027203;28;20213;-80
2023/01/08 03:44:42;;;;;;;0.87;0.87;;;;;;;12.80;43.43;95574.19;5043531;28;20207;-80
2023/01/08 03:47:11;;;;;;;0.80;0.80;;;;;;;12.85;42.80;95584.22;5032201;28;20317;-81
2023/01/08 03:49:40;;;;;;;0.70;0.70;;;;;;;12.83;43.43;95570.16;5044390;28;20211;-80
2023/01/08 03:52:07;;;;;;;0.80;0.73;;;;;;;12.76;43.89;95575.78;5034370;28;20206;-80
2023/01/08 03:54:36;;;;;;;0.67;0.67;;;;;;;12.80;43.34;95570.66;5032976;28;20217;-81
2023/01/08 03:57:04;;;;;;;0.70;0.70;;;;;;;12.91;43.33;95571.56;5031697;28;20210;-80
2023/01/08 03:59:32;;;;;;;0.67;0.67;;;;;;;12.93;43.06;95572.09;5031895;28;20210;-80
2023/01/08 04:01:59;;;;;;;1.67;0.70;;;;;;;12.95;42.73;95575.34;5034029;28;20203;-80
2023/01/08 04:04:26;;;;;;;0.67;0.67;;;;;;;12.95;42.99;95550.97;5029614;28;20256;-80
2023/01/08 04:06:53;;;;;;;0.60;0.60;;;;;;;12.93;42.96;95539.59;5035894;28;20210;-80
2023/01/08 04:09:20;;;;;;;0.60;0.60;;;;;;;13.02;42.61;95555.06;5031616;28;20203;-81
2023/01/08 04:11:47;;;;;;;1.50;0.77;;;;;;;13.01;42.70;95585.16;5046339;28;20234;-80
2023/01/08 04:14:14;;;;;;;0.70;0.70;;;;;;;13.11;42.03;95533.69;5034103;28;20202;-81
2023/01/08 04:16:42;;;;;;;0.60;0.60;;;;;;;13.01;42.54;95533.66;5041787;28;20207;-80
2023/01/08 04:19:11;;;;;;;1.07;0.70;;;;;;;13.09;42.48;95557.53;5034097;28;20195;-80
2023/01/08 04:21:39;;;;;;;0.70;0.70;;;;;;;13.12;42.46;95568.66;5033666;28;20364;-80
2023/01/08 04:24:07;;;;;;;0.70;0.70;;;;;;;13.18;42.40;95577.66;5029263;28;20260;-80
2023/01/08 04:26:34;;;;;;;0.60;0.60;;;;;;;13.12;42.50;95552.38;5030395;28;20264;-80
2023/01/08 04:29:02;;;;;;;0.80;0.80;;;;;;;13.12;42.77;95573.25;5030968;28;20209;-80
2023/01/08 04:31:29;;;;;;;0.70;0.70;;;;;;;13.00;43.16;95583.50;5030858;28;20214;-80
2023/01/08 04:33:58;;;;;;;0.60;0.60;;;;;;;13.08;42.55;95573.00;5031008;28;20207;-80
2023/01/08 04:36:25;;;;;;;0.70;0.70;;;;;;;13.07;43.01;95586.78;5029628;28;20247;-80
2023/01/08 04:38:52;;;;;;;0.70;0.70;;;;;;;13.14;42.54;95588.22;5029810;28;20279;-79
2023/01/08 04:41:19;;;;;;;1.50;0.70;;;;;;;13.12;42.62;95606.59;5032985;28;20207;-79
2023/01/08 04:43:46;;;;;;;0.73;0.70;;;;;;;13.16;42.87;95587.94;5026815;28;20253;-79
2023/01/08 04:46:13;;;;;;;0.70;0.70;;;;;;;13.11;43.09;95588.69;5024443;28;20224;-80
2023/01/08 04:48:40;;;;;;;0.60;0.60;;;;;;;13.13;42.76;95597.41;5029049;28;20210;-80
2023/01/08 04:51:08;;;;;;;0.60;0.60;;;;;;;13.22;43.10;95578.75;5026568;28;20206;-80
2023/01/08 04:53:39;;;;;;;0.70;0.70;;;;;;;13.12;43.34;95593.03;5026193;28;20202;-80
2023/01/08 04:56:08;;;;;;;0.60;0.60;;;;;;;13.05;44.17;95583.53;5023877;28;20234;-79
2023/01/08 04:58:36;;;;;;;0.70;0.70;;;;;;;12.96;44.06;95604.06;5025988;28;21330;-80
2023/01/08 05:01:10;;;;;;;0.70;0.70;;;;;;;12.97;44.13;95578.63;5038164;28;20220;-80
2023/01/08 05:03:38;;;;;;;0.80;0.80;;;;;;;12.92;44.63;95579.41;5020330;28;20234;-80
2023/01/08 05:06:09;;;;;;;0.70;0.70;;;;;;;12.99;44.67;95600.84;5025436;28;20224;-81
2023/01/08 05:08:37;;;;;;;0.67;0.67;;;;;;;12.99;44.22;95596.25;5026484;28;20207;-80
2023/01/08 05:11:04;;;;;;;0.60;0.57;;;;;;;13.02;44.73;95630.13;5019829;28;20210;-79
2023/01/08 05:13:34;;;;;;;0.93;0.80;;;;;;;13.02;44.88;95597.59;5028462;28;20199;-80
2023/01/08 05:16:01;;;;;;;0.60;0.60;;;;;;;12.93;45.37;95597.28;5032170;28;20234;-80
2023/01/08 05:18:29;;;;;;;0.77;0.60;;;;;;;12.95;45.04;95594.31;5030646;28;20212;-80
2023/01/08 05:21:00;;;;;;;0.77;0.70;;;;;;;12.95;44.97;95599.72;5033186;28;20213;-80
2023/01/08 05:23:28;;;;;;;0.60;0.60;;;;;;;12.85;45.33;95603.19;5026120;28;20214;-80
2023/01/08 05:25:58;;;;;;;1.80;0.60;;;;;;;12.95;45.15;95597.03;5028857;28;20198;-81
2023/01/08 05:28:25;;;;;;;0.50;0.50;;;;;;;13.03;44.99;95599.22;5029608;28;20190;-80
2023/01/08 05:30:52;;;;;;;0.70;0.70;;;;;;;13.02;44.50;95613.84;5028782;28;20214;-79
2023/01/08 05:33:19;;;;;;;0.70;0.70;;;;;;;12.95;45.60;95594.31;5033640;28;20206;-79
2023/01/08 05:35:47;;;;;;;0.60;0.60;;;;;;;12.98;45.12;95600.03;5031579;28;20218;-80
2023/01/08 05:38:14;;;;;;;0.60;0.60;;;;;;;12.96;44.33;95558.84;5045333;28;20214;-80
2023/01/08 05:40:41;;;;;;;0.70;0.70;;;;;;;12.97;44.83;95586.75;5028716;28;20207;-80
2023/01/08 05:43:09;;;;;;;0.77;0.77;;;;;;;12.91;44.45;95572.38;5027339;28;20629;-80
2023/01/08 05:45:36;;;;;;;3.53;0.70;;;;;;;12.98;45.04;95581.06;5027286;28;20198;-80
2023/01/08 05:48:06;;;;;;;1.80;0.63;;;;;;;12.94;44.33;95566.41;5045739;28;20301;-80
2023/01/08 05:50:34;;;;;;;0.60;0.60;;;;;;;12.84;45.19;95550.13;5029294;28;20230;-80
2023/01/08 05:53:01;;;;;;;0.60;0.60;;;;;;;12.83;45.53;95578.28;5026153;28;20213;-80
2023/01/08 05:55:28;;;;;;;0.87;0.70;;;;;;;12.71;45.58;95559.53;5025686;28;20250;-80
2023/01/08 05:57:55;;;;;;;0.50;0.50;;;;;;;12.78;45.20;95553.84;5029015;28;20202;-80
2023/01/08 06:00:25;;;;;;;0.60;0.60;;;;;;;12.77;45.21;95558.47;5027633;28;20254;-80
2023/01/08 06:02:52;;;;;;;0.60;0.60;;;;;;;12.85;44.91;95557.13;5030302;28;20227;-80
2023/01/08 06:05:19;;;;;;;0.50;0.50;;;;;;;12.86;44.70;95565.00;5026935;28;20287;-80
2023/01/08 06:07:46;;;;;;;0.60;0.60;;;;;;;12.82;45.55;95584.78;5023547;28;20207;-80
2023/01/08 06:10:13;;;;;;;0.60;0.60;;;;;;;12.79;45.06;95569.84;5027138;28;20236;-79
2023/01/08 06:12:40;;;;;;;0.70;0.70;;;;;;;12.92;44.41;95562.34;5028239;28;20218;-79
2023/01/08 06:15:08;;;;;;;0.70;0.70;;;;;;;13.02;44.15;95565.06;5039163;28;20301;-80
2023/01/08 06:17:36;;;;;;;0.70;0.70;;;;;;;13.01;44.46;95566.19;5028617;28;20198;-80
2023/01/08 06:20:05;;;;;;;0.70;0.70;;;;;;;13.03;44.33;95564.00;5026969;28;20222;-80
2023/01/08 06:22:32;;;;;;;0.60;0.60;;;;;;;12.97;44.18;95556.94;5021583;28;20207;-80
2023/01/08 06:24:59;;;;;;;0.70;0.70;;;;;;;12.89;44.22;95564.50;5027574;28;20250;-80
2023/01/08 06:27:26;;;;;;;0.60;0.60;;;;;;;12.93;44.87;95562.06;5027563;28;20198;-80
2023/01/08 06:29:53;;;;;;;0.70;0.70;;;;;;;12.87;44.44;95553.09;5026487;28;20222;-80
2023/01/08 06:32:20;;;;;;;0.60;0.60;;;;;;;12.92;43.99;95563.16;5028621;28;20213;-80
2023/01/08 06:34:48;;;;;;;0.93;0.90;;;;;;;12.88;43.96;95546.59;5026311;28;20209;-80
2023/01/08 06:37:15;;;;;;;0.93;0.83;;;;;;;12.94;44.61;95552.03;5033236;28;20229;-80
2023/01/08 06:39:42;;;;;;;0.73;0.73;;;;;;;12.92;44.15;95551.50;5023844;28;20302;-80
2023/01/08 06:42:09;;;;;;;0.70;0.70;;;;;;;12.96;44.43;95541.75;5027564;28;20207;-81
2023/01/08 06:44:36;;;;;;;0.70;0.70;;;;;;;12.93;45.30;95542.31;5019313;28;20339;-80
2023/01/08 06:47:04;;;;;;;0.80;0.80;;;;;;;12.96;44.34;95530.91;5043318;28;20207;-80
2023/01/08 06:49:31;;;;;;;0.60;0.60;;;;;;;12.89;45.10;95526.56;5031990;28;20210;-80
2023/01/08 06:51:59;;;;;;;0.70;0.70;;;;;;;12.96;44.69;95530.91;5030618;28;20358;-80
2023/01/08 06:54:27;;;;;;;0.60;0.60;;;;;;;13.04;44.41;95533.13;5022194;28;20214;-80
2023/01/08 06:56:54;;;;;;;0.87;0.87;;;;;;;13.01;44.42;95533.66;5042595;28;20226;-80
2023/01/08 06:59:21;;;;;;;0.60;0.60;;;;;;;12.93;45.11;95507.88;5027095;28;20618;-80
2023/01/08 07:01:48;;;;;;;0.70;0.70;;;;;;;12.95;44.94;95513.03;5028836;28;20198;-80
2023/01/08 07:04:15;;;;;;;0.80;0.80;;;;;;;12.94;44.73;95514.91;5025861;28;20273;-80
2023/01/08 07:06:42;;;;;;;1.20;0.80;;;;;;;12.92;45.51;95514.38;5028419;28;20209;-80
2023/01/08 07:09:12;;;;;;;0.70;0.70;;;;;;;12.83;45.36;95529.53;5028313;28;20280;-80
2023/01/08 07:11:39;;;;;;;1.00;0.90;;;;;;;12.83;45.12;95507.84;5028911;28;20234;-80
2023/01/08 07:14:06;;;;;;;1.03;0.93;;;;;;;12.80;44.92;95511.91;5030250;28;20374;-80
2023/01/08 07:16:34;;;;;;;0.70;0.70;;;;;;;12.74;45.60;95512.97;5031707;28;20241;-80
2023/01/08 07:19:01;;;;;;;0.70;0.70;;;;;;;12.74;45.07;95518.38;5033958;28;20206;-80
2023/01/08 07:21:28;;;;;;;0.80;0.80;;;;;;;12.85;44.92;95506.47;5036119;28;20301;-80
2023/01/08 07:23:55;;;;;;;0.80;0.80;;;;;;;12.80;45.42;95522.72;5030257;28;20232;-80
2023/01/08 07:26:23;;;;;;;0.90;0.90;;;;;;;12.84;45.03;95506.78;5026811;28;20186;-80
2023/01/08 07:28:50;;;;;;;2.03;0.73;;;;;;;12.86;45.05;95491.88;5030400;28;20198;-80
2023/01/08 07:31:17;;;;;;;0.60;0.60;;;;;;;12.90;45.04;95484.03;5036619;28;20352;-80
2023/01/08 07:33:44;;;;;;;0.93;0.57;;;;;;;13.06;44.16;95498.44;5028186;28;20272;-79
2023/01/08 07:36:11;;;;;;;0.70;0.70;;;;;;;13.07;44.71;95494.66;5029295;28;20226;-79
2023/01/08 07:38:38;;;;;;;0.60;0.60;;;;;;;12.99;45.37;95508.72;5031572;28;20202;-81
2023/01/08 07:41:05;;;;;;;0.70;0.70;;;;;;;13.02;45.25;95513.59;5026736;28;20208;-80
2023/01/08 07:43:34;;;;;;;0.67;0.67;;;;;;;12.93;45.43;95510.56;5027853;28;20319;-80
2023/01/08 07:46:02;;;;;;;0.90;0.70;;;;;;;12.94;45.65;95523.03;5026076;28;20213;-80
2023/01/08 07:48:29;;;;;;;0.70;0.70;;;;;;;12.93;44.68;95517.91;5021995;28;20202;-80
2023/01/08 07:51:01;;;;;;;0.60;0.60;;;;;;;13.15;44.29;95516.66;5024709;28;20240;-80
2023/01/08 07:53:29;;;;;;;0.60;0.60;;;;;;;13.14;44.21;95523.16;5028301;28;20303;-80
2023/01/08 07:56:00;;;;;;;0.83;0.77;;;;;;;13.14;43.95;95516.94;5027993;28;20285;-80
2023/01/08 07:58:27;;;;;;;0.70;0.70;;;;;;;13.11;44.07;95525.53;5040511;28;20206;-80
2023/01/08 08:00:56;;;;;;;0.90;0.90;;;;;;;13.12;44.33;95535.31;5032640;28;20210;-80
2023/01/08 08:03:24;;;;;;;0.70;0.70;;;;;;;13.01;44.95;95531.78;5038989;28;20202;-80
2023/01/08 08:05:52;;;;;;;0.70;0.70;;;;;;;12.99;43.96;95535.81;5037210;28;20199;-80
2023/01/08 08:08:19;;;;;;;0.70;0.70;;;;;;;13.13;44.09;95531.53;5038584;28;20301;-80
2023/01/08 08:10:47;;;;;;;0.70;0.70;;;;;;;13.11;45.15;95564.31;5038210;28;20226;-80
2023/01/08 08:13:14;;;;;;;0.70;0.70;;;;;;;13.03;44.90;95564.00;5035683;28;20248;-80
2023/01/08 08:15:41;;;;;;;0.60;0.60;;;;;;;13.14;43.63;95571.94;5041722;28;20198;-79
2023/01/08 08:18:09;;;;;;;0.60;0.60;;;;;;;13.20;43.60;95557.31;5036668;28;20215;-79
2023/01/08 08:20:37;;;;;;;0.63;0.60;;;;;;;13.20;44.29;95567.34;5035634;28;20202;-79
2023/01/08 08:23:06;;;;;;;0.60;0.60;;;;;;;13.30;44.03;95580.13;5039669;28;20282;-79
2023/01/08 08:25:34;;;;;;;0.60;0.60;;;;;;;13.21;44.26;95567.09;5037642;28;20241;-78
2023/01/08 08:28:02;;;;;;;0.70;0.70;;;;;;;13.22;44.43;95573.34;5030207;28;20199;-79
2023/01/08 08:30:31;;;;;;;0.70;0.70;;;;;;;13.16;45.03;95568.97;5036535;28;20210;-79
2023/01/08 08:33:00;;;;;;;1.60;1.50;;;;;;;13.08;45.58;95577.59;5033400;28;20210;-80
2023/01/08 08:35:28;;;;;;;1.30;1.20;;;;;;;13.12;44.44;95567.84;5033201;28;20284;-79
2023/01/08 08:37:56;;;;;;;0.60;0.60;;;;;;;13.19;43.97;95581.97;5042455;28;20222;-80
2023/01/08 08:40:24;;;;;;;1.00;0.70;;;;;;;13.34;44.50;95582.06;5040316;28;20210;-80
2023/01/08 08:42:56;;;;;;;0.70;0.70;;;;;;;13.27;45.32;95580.69;5045041;28;20202;-80
2023/01/08 08:45:23;;;;;;;0.80;0.80;;;;;;;13.25;44.62;95567.38;5042248;28;20301;-80
2023/01/08 08:47:50;;;;;;;0.80;0.80;;;;;;;13.18;45.50;95570.31;5036766;28;20202;-80
2023/01/08 08:50:18;;;;;;;2.63;0.90;;;;;;;13.15;45.90;95579.00;5036042;28;20217;-80
2023/01/08 08:52:47;;;;;;;0.80;0.80;;;;;;;13.14;45.62;95569.25;5036581;28;20214;-80
2023/01/08 08:55:16;;;;;;;1.00;0.80;;;;;;;13.10;46.73;95575.44;5039843;28;20211;-80
2023/01/08 08:57:43;;;;;;;0.80;0.80;;;;;;;13.10;46.52;95570.81;5037246;28;20213;-79
2023/01/08 09:00:11;;;;;;;0.63;0.63;;;;;;;13.08;46.88;95577.59;5038145;28;20217;-80
2023/01/08 09:02:38;;;;;;;0.73;0.73;;;;;;;13.09;46.58;95580.03;5041863;28;20207;-80
2023/01/08 09:05:08;;;;;;;0.80;0.80;;;;;;;13.07;46.80;95565.13;5039338;28;20277;-80
2023/01/08 09:07:35;;;;;;;0.73;0.73;;;;;;;13.04;47.48;95562.91;5042913;28;20210;-80
2023/01/08 09:10:05;;;;;;;0.80;0.80;;;;;;;13.09;47.09;95569.19;5040304;28;20222;-80
2023/01/08 09:12:32;;;;;;;0.60;0.60;;;;;;;13.07;46.03;95565.13;5044875;28;20293;-80
2023/01/08 09:14:59;;;;;;;1.73;0.70;;;;;;;13.15;45.79;95580.91;5039350;28;20213;-80
2023/01/08 09:17:26;;;;;;;0.80;0.80;;;;;;;13.11;47.17;95561.59;5047030;28;20287;-80
2023/01/08 09:19:53;;;;;;;0.60;0.60;;;;;;;13.06;46.95;95558.06;5041711;28;20202;-80
2023/01/08 09:22:21;;;;;;;0.80;0.80;;;;;;;13.00;48.00;95572.69;5045279;28;20210;-80
2023/01/08 09:24:48;;;;;;;1.17;0.80;;;;;;;12.97;47.07;95575.91;5048367;28;20280;-80
2023/01/08 09:27:16;;;;;;;0.80;0.80;;;;;;;12.95;47.47;95580.75;5046647;28;20206;-80
2023/01/08 09:29:43;;;;;;;0.70;0.70;;;;;;;13.00;47.01;95586.22;5042982;28;20198;-80
2023/01/08 09:32:10;;;;;;;0.80;0.80;;;;;;;13.01;47.50;95594.09;5045425;28;20218;-81
2023/01/08 09:34:37;;;;;;;1.00;1.00;;;;;;;12.95;47.76;95586.19;5044541;28;20248;-80
2023/01/08 09:37:07;;;;;;;0.60;0.60;;;;;;;13.02;46.65;95574.03;5032651;28;20219;-80
2023/01/08 09:39:36;;;;;;;0.70;0.70;;;;;;;13.06;46.90;95575.13;5045568;28;20213;-80
2023/01/08 09:42:06;;;;;;;0.50;0.50;;;;;;;12.99;47.17;95571.84;5042618;28;20220;-80
2023/01/08 09:44:40;;;;;;;0.90;0.70;;;;;;;13.01;47.15;95577.03;5042149;28;20209;-80
2023/01/08 09:47:21;;;;;;;0.57;0.57;;;;;;;13.03;47.34;95585.69;5040113;28;20199;-80
2023/01/08 09:49:49;;;;;;;0.67;0.67;;;;;;;13.00;47.61;95580.81;5044861;28;20693;-80
2023/01/08 09:52:17;;;;;;;0.60;0.60;;;;;;;13.00;47.25;95592.47;5037519;28;20266;-80
2023/01/08 09:54:44;;;;;;;0.60;0.60;;;;;;;12.96;49.08;95598.66;5040523;28;20208;-80
2023/01/08 09:57:16;;;;;;;2.03;1.60;;;;;;;12.88;51.72;95599.97;5042894;28;20236;-80
2023/01/08 09:59:46;;;;;;;3.03;2.20;;;;;;;12.45;60.04;95596.47;5042257;28;20213;-80
2023/01/08 10:02:16;;;;;;;3.47;2.13;;;;;;;11.90;65.50;95594.13;5047706;28;20210;-80
2023/01/08 10:04:44;;;;;;;1.50;0.60;;;;;;;11.96;54.73;95593.09;5041986;28;20221;-80
2023/01/08 10:07:20;;;;;;;0.60;0.60;;;;;;;12.34;53.28;95583.91;5046900;28;20216;-81
2023/01/08 10:09:49;;;;;;;0.70;0.70;;;;;;;12.58;52.27;95578.13;5046701;28;20198;-80
2023/01/08 10:12:18;;;;;;;0.50;0.50;;;;;;;12.66;51.00;95569.53;5043985;28;20198;-80
2023/01/08 10:14:48;;;;;;;0.60;0.60;;;;;;;12.72;52.20;95563.88;5044627;28;20198;-80
2023/01/08 10:17:26;;;;;;;1.27;0.80;;;;;;;12.72;52.24;95569.28;5048504;28;20233;-79
2023/01/08 10:19:54;;;;;;;0.70;0.70;;;;;;;12.73;52.41;95565.50;5048724;28;20211;-80
2023/01/08 10:22:23;;;;;;;0.70;0.70;;;;;;;12.73;52.35;95554.66;5043651;28;20195;-80
2023/01/08 10:24:51;;;;;;;1.33;1.10;;;;;;;12.71;52.09;95556.00;5044241;28;20233;-79
2023/01/08 10:27:20;;;;;;;0.60;0.60;;;;;;;12.72;52.88;95542.19;5039609;28;20198;-80
2023/01/08 10:29:50;;;;;;;1.20;0.70;;;;;;;12.62;53.49;95522.34;5044188;28;20290;-81
2023/01/08 10:32:19;;;;;;;0.80;0.80;;;;;;;12.64;53.28;95526.44;5046866;28;20202;-80
2023/01/08 10:34:49;;;;;;;0.73;0.60;;;;;;;12.62;53.59;95525.88;5038059;28;20213;-81
2023/01/08 10:37:27;;;;;;;0.50;0.50;;;;;;;12.42;54.75;95504.09;5044020;28;20236;-80
2023/01/08 10:39:59;;;;;;;0.50;0.50;;;;;;;12.46;54.64;95499.81;5045643;28;20214;-79
2023/01/08 10:42:26;;;;;;;0.70;0.70;;;;;;;12.49;54.83;95502.00;5045685;28;20241;-80
2023/01/08 10:44:59;;;;;;;0.50;0.50;;;;;;;12.52;53.91;95510.41;5043479;28;20217;-80
2023/01/08 10:47:29;;;;;;;0.60;0.60;;;;;;;12.57;53.85;95501.50;5040639;28;20202;-80
2023/01/08 10:49:57;;;;;;;0.53;0.53;;;;;;;12.45;54.67;95501.69;5043668;28;20209;-80
2023/01/08 10:52:28;;;;;;;0.50;0.50;;;;;;;12.47;54.73;95504.16;5034371;28;20210;-82
2023/01/08 10:54:55;;;;;;;0.60;0.60;;;;;;;12.41;54.72;95484.38;5035185;28;20264;-84
2023/01/08 10:57:26;;;;;;;0.60;0.60;;;;;;;12.51;53.69;95487.09;5047410;28;20218;-84
2023/01/08 10:59:53;;;;;;;0.50;0.50;;;;;;;12.60;53.19;95484.72;5044329;28;20202;-83
2023/01/08 11:02:34;;;;;;;0.60;0.60;;;;;;;12.68;51.79;95476.06;5044439;28;20210;-84
2023/01/08 11:05:03;;;;;;;0.43;0.43;;;;;;;12.73;52.56;95467.97;5044296;28;20245;-84
2023/01/08 11:07:34;;;;;;;0.50;0.50;;;;;;;12.80;50.25;95463.13;5046145;28;20205;-84
2023/01/08 11:10:03;;;;;;;0.60;0.60;;;;;;;12.79;50.63;95472.34;5049515;28;20206;-83
2023/01/08 11:12:36;;;;;;;0.60;0.60;;;;;;;12.82;50.33;95457.47;5046606;28;20210;-83
2023/01/08 11:15:06;;;;;;;0.60;0.60;;;;;;;12.80;51.07;95446.88;5039147;28;20205;-84
2023/01/08 11:17:35;;;;;;;0.50;0.50;;;;;;;12.84;51.04;95453.38;5054277;28;20278;-85
2023/01/08 11:20:19;;;;;;;0.60;0.60;;;;;;;12.90;49.82;95446.09;5047806;28;20202;-84
2023/01/08 11:22:46;;;;;;;1.00;0.60;;;;;;;12.91;49.39;95425.25;5045528;28;20209;-84
2023/01/08 11:25:22;;;;;;;0.60;0.60;;;;;;;13.02;48.30;95416.03;5039227;28;20230;-84
2023/01/08 11:27:52;;;;;;;0.80;0.60;;;;;;;13.08;47.69;95407.66;5043160;28;20199;-84
2023/01/08 11:30:24;;;;;;;0.60;0.60;;;;;;;13.15;48.52;95405.53;5047365;28;20213;-84
2023/01/08 11:33:00;;;;;;;0.70;0.70;;;;;;;13.08;48.68;95394.13;5044457;28;20209;-83
2023/01/08 11:35:29;;;;;;;0.63;0.63;;;;;;;13.10;48.32;95391.16;5035875;28;20280;-85
2023/01/08 11:37:58;;;;;;;0.60;0.60;;;;;;;13.09;47.75;95367.84;5043037;28;20219;-85
2023/01/08 11:40:38;;;;;;;0.60;0.60;;;;;;;13.23;47.90;95374.38;5044803;28;20202;-85
2023/01/08 11:43:18;;;;;;;0.50;0.50;;;;;;;13.31;46.66;95367.59;5063110;28;20201;-86